sensor_id;sensor_type;location;lat;lon;timestamp;temperature;humidity
36206;DHT22;22242;48.796;9.930;2022-11-15T00:01:16;12.20;99.90
36206;DHT22;22242;48.796;9.930;2022-11-15T00:04:02;12.20;99.90
36206;DHT22;22242;48.796;9.930;2022-11-15T00:06:47;12.20;99.90
36206;DHT22;22242;48.796;9.930;2022-11-15T00:09:33;12.30;99.90
36206;DHT22;22242;48.796;9.930;2022-11-15T00:12:18;12.30;99.90
36206;DHT22;22242;48.796;9.930;2022-11-15T00:15:07;12.30;99.90
36206;DHT22;22242;48.796;9.930;2022-11-15T00:17:52;12.30;99.90
36206;DHT22;22242;48.796;9.930;2022-11-15T00:20:38;12.30;99.90
36206;DHT22;22242;48.796;9.930;2022-11-15T00:23:23;12.30;99.90
36206;DHT22;22242;48.796;9.930;2022-11-15T00:26:12;12.20;99.90
36206;DHT22;22242;48.796;9.930;2022-11-15T00:28:58;12.20;99.90
36206;DHT22;22242;48.796;9.930;2022-11-15T00:31:44;12.10;99.90
36206;DHT22;22242;48.796;9.930;2022-11-15T00:34:30;12.00;99.90
36206;DHT22;22242;48.796;9.930;2022-11-15T00:37:15;11.90;99.90
36206;DHT22;22242;48.796;9.930;2022-11-15T00:40:01;11.80;99.90
36206;DHT22;22242;48.796;9.930;2022-11-15T00:42:46;11.70;99.90
36206;DHT22;22242;48.796;9.930;2022-11-15T00:45:32;11.60;99.90
36206;DHT22;22242;48.796;9.930;2022-11-15T00:48:19;11.60;99.90
36206;DHT22;22242;48.796;9.930;2022-11-15T00:51:05;11.60;99.90
36206;DHT22;22242;48.796;9.930;2022-11-15T00:53:50;11.70;99.90
36206;DHT22;22242;48.796;9.930;2022-11-15T00:56:36;11.70;99.90
36206;DHT22;22242;48.796;9.930;2022-11-15T00:59:21;11.60;99.90
36206;DHT22;22242;48.796;9.930;2022-11-15T01:02:07;11.50;99.90
36206;DHT22;22242;48.796;9.930;2022-11-15T01:04:53;11.70;99.90
36206;DHT22;22242;48.796;9.930;2022-11-15T01:07:39;11.80;99.90
36206;DHT22;22242;48.796;9.930;2022-11-15T01:10:24;11.90;99.90
36206;DHT22;22242;48.796;9.930;2022-11-15T01:13:10;12.10;99.90
36206;DHT22;22242;48.796;9.930;2022-11-15T01:15:55;12.30;99.90
36206;DHT22;22242;48.796;9.930;2022-11-15T01:18:41;12.20;99.90
36206;DHT22;22242;48.796;9.930;2022-11-15T01:21:28;12.20;99.90
36206;DHT22;22242;48.796;9.930;2022-11-15T01:24:13;12.10;99.90
36206;DHT22;22242;48.796;9.930;2022-11-15T01:26:58;11.90;99.90
36206;DHT22;22242;48.796;9.930;2022-11-15T01:29:44;11.90;99.90
36206;DHT22;22242;48.796;9.930;2022-11-15T01:32:29;11.90;99.90
36206;DHT22;22242;48.796;9.930;2022-11-15T01:35:15;11.90;99.90
36206;DHT22;22242;48.796;9.930;2022-11-15T01:38:01;12.00;99.90
36206;DHT22;22242;48.796;9.930;2022-11-15T01:40:47;12.10;99.90
36206;DHT22;22242;48.796;9.930;2022-11-15T01:43:35;12.10;99.90
36206;DHT22;22242;48.796;9.930;2022-11-15T01:46:28;12.10;99.90
36206;DHT22;22242;48.796;9.930;2022-11-15T01:49:17;12.10;99.90
36206;DHT22;22242;48.796;9.930;2022-11-15T01:52:06;12.10;99.90
36206;DHT22;22242;48.796;9.930;2022-11-15T01:54:58;12.10;99.90
36206;DHT22;22242;48.796;9.930;2022-11-15T01:57:47;12.00;99.90
36206;DHT22;22242;48.796;9.930;2022-11-15T02:00:33;12.00;99.90
36206;DHT22;22242;48.796;9.930;2022-11-15T02:03:19;11.90;99.90
36206;DHT22;22242;48.796;9.930;2022-11-15T02:06:07;11.80;99.90
36206;DHT22;22242;48.796;9.930;2022-11-15T02:08:53;11.70;99.90
36206;DHT22;22242;48.796;9.930;2022-11-15T02:11:41;11.60;99.90
36206;DHT22;22242;48.796;9.930;2022-11-15T02:14:27;11.50;99.90
36206;DHT22;22242;48.796;9.930;2022-11-15T02:17:31;11.60;99.90
36206;DHT22;22242;48.796;9.930;2022-11-15T02:20:35;11.60;99.90
36206;DHT22;22242;48.796;9.930;2022-11-15T02:23:53;11.40;99.90
36206;DHT22;22242;48.796;9.930;2022-11-15T02:30:22;10.90;99.90
36206;DHT22;22242;48.796;9.930;2022-11-15T02:33:16;10.70;99.90
36206;DHT22;22242;48.796;9.930;2022-11-15T02:36:10;10.60;99.90
36206;DHT22;22242;48.796;9.930;2022-11-15T02:39:01;10.50;99.90
36206;DHT22;22242;48.796;9.930;2022-11-15T02:41:53;10.30;99.90
36206;DHT22;22242;48.796;9.930;2022-11-15T02:44:43;10.20;99.90
36206;DHT22;22242;48.796;9.930;2022-11-15T02:47:32;10.00;99.90
36206;DHT22;22242;48.796;9.930;2022-11-15T02:50:21;9.80;99.90
36206;DHT22;22242;48.796;9.930;2022-11-15T02:53:08;9.70;99.90
36206;DHT22;22242;48.796;9.930;2022-11-15T02:55:55;9.60;99.90
36206;DHT22;22242;48.796;9.930;2022-11-15T02:59:00;9.50;99.90
36206;DHT22;22242;48.796;9.930;2022-11-15T03:02:01;9.40;99.90
36206;DHT22;22242;48.796;9.930;2022-11-15T03:04:53;9.40;99.90
36206;DHT22;22242;48.796;9.930;2022-11-15T03:07:52;9.30;99.90
36206;DHT22;22242;48.796;9.930;2022-11-15T03:10:46;9.30;99.90
36206;DHT22;22242;48.796;9.930;2022-11-15T03:13:37;9.20;99.90
36206;DHT22;22242;48.796;9.930;2022-11-15T03:16:28;9.10;99.90
36206;DHT22;22242;48.796;9.930;2022-11-15T03:19:21;9.10;99.90
36206;DHT22;22242;48.796;9.930;2022-11-15T03:22:15;9.00;99.90
36206;DHT22;22242;48.796;9.930;2022-11-15T03:25:05;8.90;99.90
36206;DHT22;22242;48.796;9.930;2022-11-15T03:27:53;8.80;99.90
36206;DHT22;22242;48.796;9.930;2022-11-15T03:30:40;8.80;99.90
36206;DHT22;22242;48.796;9.930;2022-11-15T03:33:27;8.70;99.90
36206;DHT22;22242;48.796;9.930;2022-11-15T03:36:13;8.70;99.90
36206;DHT22;22242;48.796;9.930;2022-11-15T03:39:03;8.60;99.90
36206;DHT22;22242;48.796;9.930;2022-11-15T03:41:56;8.60;99.90
36206;DHT22;22242;48.796;9.930;2022-11-15T03:44:51;8.60;99.90
36206;DHT22;22242;48.796;9.930;2022-11-15T03:47:41;8.50;99.90
36206;DHT22;22242;48.796;9.930;2022-11-15T03:50:29;8.50;99.90
36206;DHT22;22242;48.796;9.930;2022-11-15T03:53:15;8.60;99.90
36206;DHT22;22242;48.796;9.930;2022-11-15T03:56:02;8.60;99.90
36206;DHT22;22242;48.796;9.930;2022-11-15T03:58:47;8.70;99.90
36206;DHT22;22242;48.796;9.930;2022-11-15T04:01:33;8.90;99.90
36206;DHT22;22242;48.796;9.930;2022-11-15T04:04:18;9.00;99.90
36206;DHT22;22242;48.796;9.930;2022-11-15T04:07:04;9.10;99.90
36206;DHT22;22242;48.796;9.930;2022-11-15T04:09:50;9.20;99.90
36206;DHT22;22242;48.796;9.930;2022-11-15T04:12:49;9.30;99.90
36206;DHT22;22242;48.796;9.930;2022-11-15T04:15:34;9.40;99.90
36206;DHT22;22242;48.796;9.930;2022-11-15T04:18:20;9.40;99.90
36206;DHT22;22242;48.796;9.930;2022-11-15T04:21:06;9.50;99.90
36206;DHT22;22242;48.796;9.930;2022-11-15T04:24:10;9.60;99.90
36206;DHT22;22242;48.796;9.930;2022-11-15T04:26:58;9.60;99.90
36206;DHT22;22242;48.796;9.930;2022-11-15T04:29:45;9.90;99.90
36206;DHT22;22242;48.796;9.930;2022-11-15T04:32:31;10.00;99.90
36206;DHT22;22242;48.796;9.930;2022-11-15T04:35:16;10.20;99.90
36206;DHT22;22242;48.796;9.930;2022-11-15T04:38:04;10.20;99.90
36206;DHT22;22242;48.796;9.930;2022-11-15T04:40:49;10.10;99.90
36206;DHT22;22242;48.796;9.930;2022-11-15T04:43:35;10.10;99.90
36206;DHT22;22242;48.796;9.930;2022-11-15T04:46:22;10.00;99.90
36206;DHT22;22242;48.796;9.930;2022-11-15T04:49:08;10.00;99.90
36206;DHT22;22242;48.796;9.930;2022-11-15T04:51:53;10.00;99.90
36206;DHT22;22242;48.796;9.930;2022-11-15T04:54:39;10.00;99.90
36206;DHT22;22242;48.796;9.930;2022-11-15T04:57:26;10.00;99.90
36206;DHT22;22242;48.796;9.930;2022-11-15T05:00:13;10.00;99.90
36206;DHT22;22242;48.796;9.930;2022-11-15T05:03:00;9.90;99.90
36206;DHT22;22242;48.796;9.930;2022-11-15T05:06:04;9.90;99.90
36206;DHT22;22242;48.796;9.930;2022-11-15T05:08:50;10.00;99.90
36206;DHT22;22242;48.796;9.930;2022-11-15T05:11:36;10.00;99.90
36206;DHT22;22242;48.796;9.930;2022-11-15T05:14:21;9.90;99.90
36206;DHT22;22242;48.796;9.930;2022-11-15T05:17:06;10.00;99.90
36206;DHT22;22242;48.796;9.930;2022-11-15T05:19:53;10.00;99.90
36206;DHT22;22242;48.796;9.930;2022-11-15T05:22:39;10.00;99.90
36206;DHT22;22242;48.796;9.930;2022-11-15T05:25:24;10.10;99.90
36206;DHT22;22242;48.796;9.930;2022-11-15T05:28:10;10.20;99.90
36206;DHT22;22242;48.796;9.930;2022-11-15T05:31:00;10.20;99.90
36206;DHT22;22242;48.796;9.930;2022-11-15T05:33:46;10.20;99.90
36206;DHT22;22242;48.796;9.930;2022-11-15T05:36:35;10.10;99.90
36206;DHT22;22242;48.796;9.930;2022-11-15T05:39:21;10.20;99.90
36206;DHT22;22242;48.796;9.930;2022-11-15T05:42:09;10.30;99.90
36206;DHT22;22242;48.796;9.930;2022-11-15T05:44:56;10.40;99.90
36206;DHT22;22242;48.796;9.930;2022-11-15T05:47:42;10.30;99.90
36206;DHT22;22242;48.796;9.930;2022-11-15T05:50:27;10.30;99.90
36206;DHT22;22242;48.796;9.930;2022-11-15T05:53:16;10.30;99.90
36206;DHT22;22242;48.796;9.930;2022-11-15T05:56:04;10.30;99.90
36206;DHT22;22242;48.796;9.930;2022-11-15T05:58:52;10.40;99.90
36206;DHT22;22242;48.796;9.930;2022-11-15T06:01:38;10.40;99.90
36206;DHT22;22242;48.796;9.930;2022-11-15T06:04:24;10.50;99.90
36206;DHT22;22242;48.796;9.930;2022-11-15T06:07:10;10.50;99.90
36206;DHT22;22242;48.796;9.930;2022-11-15T06:09:57;10.60;99.90
36206;DHT22;22242;48.796;9.930;2022-11-15T06:12:42;10.50;99.90
36206;DHT22;22242;48.796;9.930;2022-11-15T06:15:28;10.50;99.90
36206;DHT22;22242;48.796;9.930;2022-11-15T06:18:13;10.40;99.90
36206;DHT22;22242;48.796;9.930;2022-11-15T06:20:59;10.40;99.90
36206;DHT22;22242;48.796;9.930;2022-11-15T06:23:44;10.50;99.90
36206;DHT22;22242;48.796;9.930;2022-11-15T06:26:31;10.50;99.90
36206;DHT22;22242;48.796;9.930;2022-11-15T06:29:17;10.40;99.90
36206;DHT22;22242;48.796;9.930;2022-11-15T06:32:02;10.30;99.90
36206;DHT22;22242;48.796;9.930;2022-11-15T06:34:48;10.10;99.90
36206;DHT22;22242;48.796;9.930;2022-11-15T06:37:33;10.00;99.90
36206;DHT22;22242;48.796;9.930;2022-11-15T06:40:19;9.90;99.90
36206;DHT22;22242;48.796;9.930;2022-11-15T06:43:06;10.00;99.90
36206;DHT22;22242;48.796;9.930;2022-11-15T06:45:51;10.00;99.90
36206;DHT22;22242;48.796;9.930;2022-11-15T06:48:37;10.00;99.90
36206;DHT22;22242;48.796;9.930;2022-11-15T06:51:22;10.00;99.90
36206;DHT22;22242;48.796;9.930;2022-11-15T06:54:07;10.00;99.90
36206;DHT22;22242;48.796;9.930;2022-11-15T06:56:53;10.00;99.90
36206;DHT22;22242;48.796;9.930;2022-11-15T06:59:40;10.10;99.90
36206;DHT22;22242;48.796;9.930;2022-11-15T07:02:25;10.20;99.90
36206;DHT22;22242;48.796;9.930;2022-11-15T07:05:11;10.40;99.90
36206;DHT22;22242;48.796;9.930;2022-11-15T07:07:58;10.50;99.90
36206;DHT22;22242;48.796;9.930;2022-11-15T07:10:43;10.60;99.90
36206;DHT22;22242;48.796;9.930;2022-11-15T07:13:30;10.70;99.90
36206;DHT22;22242;48.796;9.930;2022-11-15T07:16:18;10.80;99.90
36206;DHT22;22242;48.796;9.930;2022-11-15T07:19:03;11.00;99.90
36206;DHT22;22242;48.796;9.930;2022-11-15T07:21:49;10.90;99.90
36206;DHT22;22242;48.796;9.930;2022-11-15T07:24:34;11.00;99.90
36206;DHT22;22242;48.796;9.930;2022-11-15T07:27:19;10.80;99.90
36206;DHT22;22242;48.796;9.930;2022-11-15T07:30:06;10.70;99.90
36206;DHT22;22242;48.796;9.930;2022-11-15T07:32:53;10.60;99.90
36206;DHT22;22242;48.796;9.930;2022-11-15T07:35:39;10.70;99.90
36206;DHT22;22242;48.796;9.930;2022-11-15T07:38:24;10.30;99.90
36206;DHT22;22242;48.796;9.930;2022-11-15T07:41:10;10.00;99.90
36206;DHT22;22242;48.796;9.930;2022-11-15T07:43:56;10.40;99.90
36206;DHT22;22242;48.796;9.930;2022-11-15T07:46:42;10.80;99.90
36206;DHT22;22242;48.796;9.930;2022-11-15T07:49:29;10.90;99.90
36206;DHT22;22242;48.796;9.930;2022-11-15T07:52:14;11.20;99.90
36206;DHT22;22242;48.796;9.930;2022-11-15T07:55:00;11.20;99.90
36206;DHT22;22242;48.796;9.930;2022-11-15T07:57:45;11.40;99.90
36206;DHT22;22242;48.796;9.930;2022-11-15T08:00:31;11.60;99.90
36206;DHT22;22242;48.796;9.930;2022-11-15T08:03:16;11.90;99.90
36206;DHT22;22242;48.796;9.930;2022-11-15T08:06:04;11.80;99.90
36206;DHT22;22242;48.796;9.930;2022-11-15T08:08:49;11.90;99.90
36206;DHT22;22242;48.796;9.930;2022-11-15T08:11:34;12.30;99.90
36206;DHT22;22242;48.796;9.930;2022-11-15T08:14:20;12.60;99.90
36206;DHT22;22242;48.796;9.930;2022-11-15T08:17:06;12.60;99.90
36206;DHT22;22242;48.796;9.930;2022-11-15T08:19:51;12.30;99.90
36206;DHT22;22242;48.796;9.930;2022-11-15T08:22:38;11.70;99.90
36206;DHT22;22242;48.796;9.930;2022-11-15T08:25:24;11.70;99.90
36206;DHT22;22242;48.796;9.930;2022-11-15T08:28:11;12.50;99.90
36206;DHT22;22242;48.796;9.930;2022-11-15T08:30:56;13.00;99.90
36206;DHT22;22242;48.796;9.930;2022-11-15T08:33:42;13.70;99.90
36206;DHT22;22242;48.796;9.930;2022-11-15T08:36:27;14.90;99.90
36206;DHT22;22242;48.796;9.930;2022-11-15T08:39:14;16.40;99.90
36206;DHT22;22242;48.796;9.930;2022-11-15T08:42:00;16.90;99.90
36206;DHT22;22242;48.796;9.930;2022-11-15T08:44:45;17.70;99.90
36206;DHT22;22242;48.796;9.930;2022-11-15T08:47:31;18.20;99.90
36206;DHT22;22242;48.796;9.930;2022-11-15T08:50:16;18.40;98.30
36206;DHT22;22242;48.796;9.930;2022-11-15T08:53:05;18.60;97.10
36206;DHT22;22242;48.796;9.930;2022-11-15T08:55:52;19.30;96.30
36206;DHT22;22242;48.796;9.930;2022-11-15T08:58:38;19.50;96.20
36206;DHT22;22242;48.796;9.930;2022-11-15T09:01:23;19.50;94.90
36206;DHT22;22242;48.796;9.930;2022-11-15T09:04:09;19.30;94.70
36206;DHT22;22242;48.796;9.930;2022-11-15T09:06:54;18.70;95.50
36206;DHT22;22242;48.796;9.930;2022-11-15T09:09:40;19.50;95.10
36206;DHT22;22242;48.796;9.930;2022-11-15T09:12:26;19.90;94.60
36206;DHT22;22242;48.796;9.930;2022-11-15T09:15:12;18.50;94.60
36206;DHT22;22242;48.796;9.930;2022-11-15T09:17:58;17.30;97.70
36206;DHT22;22242;48.796;9.930;2022-11-15T09:20:43;16.60;99.20
36206;DHT22;22242;48.796;9.930;2022-11-15T09:23:29;16.50;99.90
36206;DHT22;22242;48.796;9.930;2022-11-15T09:26:15;16.10;99.90
36206;DHT22;22242;48.796;9.930;2022-11-15T09:29:02;15.90;99.90
36206;DHT22;22242;48.796;9.930;2022-11-15T09:31:47;15.60;99.90
36206;DHT22;22242;48.796;9.930;2022-11-15T09:34:33;15.50;99.90
36206;DHT22;22242;48.796;9.930;2022-11-15T09:37:18;15.40;99.90
36206;DHT22;22242;48.796;9.930;2022-11-15T09:40:04;15.40;99.90
36206;DHT22;22242;48.796;9.930;2022-11-15T09:43:00;15.30;99.90
36206;DHT22;22242;48.796;9.930;2022-11-15T09:45:57;15.00;99.90
36206;DHT22;22242;48.796;9.930;2022-11-15T09:48:51;15.10;99.90
36206;DHT22;22242;48.796;9.930;2022-11-15T09:51:34;15.20;99.90
36206;DHT22;22242;48.796;9.930;2022-11-15T09:54:11;15.30;99.90
36206;DHT22;22242;48.796;9.930;2022-11-15T09:56:42;15.60;99.90
36206;DHT22;22242;48.796;9.930;2022-11-15T09:59:31;15.40;99.90
36206;DHT22;22242;48.796;9.930;2022-11-15T10:02:09;15.30;99.90
36206;DHT22;22242;48.796;9.930;2022-11-15T10:04:39;15.40;99.90
36206;DHT22;22242;48.796;9.930;2022-11-15T10:07:14;15.50;99.90
36206;DHT22;22242;48.796;9.930;2022-11-15T10:09:47;15.50;99.90
36206;DHT22;22242;48.796;9.930;2022-11-15T10:12:16;15.50;99.90
36206;DHT22;22242;48.796;9.930;2022-11-15T10:14:43;15.70;99.90
36206;DHT22;22242;48.796;9.930;2022-11-15T10:20:24;15.50;99.90
36206;DHT22;22242;48.796;9.930;2022-11-15T10:22:54;15.10;99.90
36206;DHT22;22242;48.796;9.930;2022-11-15T10:25:24;15.20;99.90
36206;DHT22;22242;48.796;9.930;2022-11-15T10:27:56;15.20;99.90
36206;DHT22;22242;48.796;9.930;2022-11-15T10:30:31;15.30;99.90
36206;DHT22;22242;48.796;9.930;2022-11-15T10:33:13;14.90;99.90
36206;DHT22;22242;48.796;9.930;2022-11-15T10:35:43;14.80;99.90
36206;DHT22;22242;48.796;9.930;2022-11-15T10:38:11;14.70;99.90
36206;DHT22;22242;48.796;9.930;2022-11-15T10:40:40;15.00;99.90
36206;DHT22;22242;48.796;9.930;2022-11-15T10:43:16;14.80;99.90
36206;DHT22;22242;48.796;9.930;2022-11-15T10:45:43;15.20;99.90
36206;DHT22;22242;48.796;9.930;2022-11-15T10:48:23;15.30;99.90
36206;DHT22;22242;48.796;9.930;2022-11-15T10:50:52;15.30;99.90
36206;DHT22;22242;48.796;9.930;2022-11-15T10:53:32;15.50;99.90
36206;DHT22;22242;48.796;9.930;2022-11-15T10:56:03;15.50;99.90
36206;DHT22;22242;48.796;9.930;2022-11-15T10:58:35;15.20;99.00
36206;DHT22;22242;48.796;9.930;2022-11-15T11:01:09;15.60;95.90
36206;DHT22;22242;48.796;9.930;2022-11-15T11:03:39;15.50;93.80
36206;DHT22;22242;48.796;9.930;2022-11-15T11:06:09;15.30;96.40
36206;DHT22;22242;48.796;9.930;2022-11-15T11:08:36;14.90;97.90
36206;DHT22;22242;48.796;9.930;2022-11-15T11:11:04;15.00;99.90
36206;DHT22;22242;48.796;9.930;2022-11-15T11:13:34;15.20;99.90
36206;DHT22;22242;48.796;9.930;2022-11-15T11:19:18;15.80;99.90
36206;DHT22;22242;48.796;9.930;2022-11-15T11:21:55;15.80;99.90
36206;DHT22;22242;48.796;9.930;2022-11-15T11:24:30;16.10;99.90
36206;DHT22;22242;48.796;9.930;2022-11-15T11:27:11;16.10;99.90
36206;DHT22;22242;48.796;9.930;2022-11-15T11:29:50;16.30;99.90
36206;DHT22;22242;48.796;9.930;2022-11-15T11:32:30;16.00;99.90
36206;DHT22;22242;48.796;9.930;2022-11-15T11:35:11;16.20;99.90
36206;DHT22;22242;48.796;9.930;2022-11-15T11:37:45;16.50;99.90
36206;DHT22;22242;48.796;9.930;2022-11-15T11:40:20;16.50;98.10
36206;DHT22;22242;48.796;9.930;2022-11-15T11:42:55;16.50;98.60
36206;DHT22;22242;48.796;9.930;2022-11-15T11:45:53;16.00;97.20
36206;DHT22;22242;48.796;9.930;2022-11-15T11:48:42;16.10;98.70
36206;DHT22;22242;48.796;9.930;2022-11-15T11:51:16;16.20;95.10
36206;DHT22;22242;48.796;9.930;2022-11-15T11:53:49;16.00;95.50
36206;DHT22;22242;48.796;9.930;2022-11-15T11:56:23;15.80;95.70
36206;DHT22;22242;48.796;9.930;2022-11-15T11:58:53;15.70;94.20
36206;DHT22;22242;48.796;9.930;2022-11-15T12:01:23;15.70;93.90
36206;DHT22;22242;48.796;9.930;2022-11-15T12:03:55;15.60;97.60
36206;DHT22;22242;48.796;9.930;2022-11-15T12:06:30;15.40;99.90
36206;DHT22;22242;48.796;9.930;2022-11-15T12:09:02;15.50;99.90
36206;DHT22;22242;48.796;9.930;2022-11-15T12:11:37;15.30;99.90
36206;DHT22;22242;48.796;9.930;2022-11-15T12:14:22;15.30;99.90
36206;DHT22;22242;48.796;9.930;2022-11-15T12:16:51;15.40;99.90
36206;DHT22;22242;48.796;9.930;2022-11-15T12:19:17;15.30;99.90
36206;DHT22;22242;48.796;9.930;2022-11-15T12:21:53;15.60;99.90
36206;DHT22;22242;48.796;9.930;2022-11-15T12:24:24;15.20;99.90
36206;DHT22;22242;48.796;9.930;2022-11-15T12:26:56;15.10;99.90
36206;DHT22;22242;48.796;9.930;2022-11-15T12:29:31;15.10;99.90
36206;DHT22;22242;48.796;9.930;2022-11-15T12:31:59;14.90;99.90
36206;DHT22;22242;48.796;9.930;2022-11-15T12:34:41;15.10;99.90
36206;DHT22;22242;48.796;9.930;2022-11-15T12:40:38;15.20;99.90
36206;DHT22;22242;48.796;9.930;2022-11-15T12:46:13;15.50;99.90
36206;DHT22;22242;48.796;9.930;2022-11-15T12:48:49;15.40;99.90
36206;DHT22;22242;48.796;9.930;2022-11-15T12:51:20;15.10;99.90
36206;DHT22;22242;48.796;9.930;2022-11-15T12:53:47;15.30;99.90
36206;DHT22;22242;48.796;9.930;2022-11-15T12:56:23;15.30;99.90
36206;DHT22;22242;48.796;9.930;2022-11-15T12:58:55;15.30;99.90
36206;DHT22;22242;48.796;9.930;2022-11-15T13:01:59;15.50;99.90
36206;DHT22;22242;48.796;9.930;2022-11-15T13:04:29;15.80;99.90
36206;DHT22;22242;48.796;9.930;2022-11-15T13:06:59;15.90;99.90
36206;DHT22;22242;48.796;9.930;2022-11-15T13:09:54;15.80;99.90
36206;DHT22;22242;48.796;9.930;2022-11-15T13:12:52;15.70;99.90
36206;DHT22;22242;48.796;9.930;2022-11-15T13:15:38;15.60;99.90
36206;DHT22;22242;48.796;9.930;2022-11-15T13:21:20;15.30;99.90
36206;DHT22;22242;48.796;9.930;2022-11-15T13:24:09;15.20;99.90
36206;DHT22;22242;48.796;9.930;2022-11-15T13:26:39;15.10;99.90
36206;DHT22;22242;48.796;9.930;2022-11-15T13:29:15;15.10;99.90
36206;DHT22;22242;48.796;9.930;2022-11-15T13:31:43;15.20;99.90
36206;DHT22;22242;48.796;9.930;2022-11-15T13:34:23;15.10;99.90
36206;DHT22;22242;48.796;9.930;2022-11-15T13:36:50;15.10;99.90
36206;DHT22;22242;48.796;9.930;2022-11-15T13:39:26;14.90;99.90
36206;DHT22;22242;48.796;9.930;2022-11-15T13:41:53;14.90;99.90
36206;DHT22;22242;48.796;9.930;2022-11-15T13:44:23;14.80;99.90
36206;DHT22;22242;48.796;9.930;2022-11-15T13:47:01;14.70;99.90
36206;DHT22;22242;48.796;9.930;2022-11-15T13:49:30;14.50;99.90
36206;DHT22;22242;48.796;9.930;2022-11-15T13:51:58;14.50;99.90
36206;DHT22;22242;48.796;9.930;2022-11-15T13:54:29;14.40;99.90
36206;DHT22;22242;48.796;9.930;2022-11-15T13:56:59;14.40;99.90
36206;DHT22;22242;48.796;9.930;2022-11-15T13:59:30;14.50;99.90
36206;DHT22;22242;48.796;9.930;2022-11-15T14:01:59;14.40;99.90
36206;DHT22;22242;48.796;9.930;2022-11-15T14:04:28;14.30;99.90
36206;DHT22;22242;48.796;9.930;2022-11-15T14:06:59;14.20;99.90
36206;DHT22;22242;48.796;9.930;2022-11-15T14:09:37;14.10;99.90
36206;DHT22;22242;48.796;9.930;2022-11-15T14:12:22;14.10;99.90
36206;DHT22;22242;48.796;9.930;2022-11-15T14:14:50;14.10;99.90
36206;DHT22;22242;48.796;9.930;2022-11-15T14:17:20;14.10;99.90
36206;DHT22;22242;48.796;9.930;2022-11-15T14:19:49;14.20;99.90
36206;DHT22;22242;48.796;9.930;2022-11-15T14:22:20;14.20;99.90
36206;DHT22;22242;48.796;9.930;2022-11-15T14:27:30;14.10;99.90
36206;DHT22;22242;48.796;9.930;2022-11-15T14:29:59;13.90;99.90
36206;DHT22;22242;48.796;9.930;2022-11-15T14:32:27;13.90;99.90
36206;DHT22;22242;48.796;9.930;2022-11-15T14:34:56;13.90;99.90
36206;DHT22;22242;48.796;9.930;2022-11-15T14:37:25;13.90;99.90
36206;DHT22;22242;48.796;9.930;2022-11-15T14:39:53;13.90;99.90
36206;DHT22;22242;48.796;9.930;2022-11-15T14:42:23;13.80;99.90
36206;DHT22;22242;48.796;9.930;2022-11-15T14:44:51;13.90;99.90
36206;DHT22;22242;48.796;9.930;2022-11-15T14:47:19;13.80;99.90
36206;DHT22;22242;48.796;9.930;2022-11-15T14:49:46;13.70;99.90
36206;DHT22;22242;48.796;9.930;2022-11-15T14:52:24;13.60;99.90
36206;DHT22;22242;48.796;9.930;2022-11-15T14:54:51;13.60;99.90
36206;DHT22;22242;48.796;9.930;2022-11-15T14:57:18;13.60;99.90
36206;DHT22;22242;48.796;9.930;2022-11-15T14:59:45;13.70;99.90
36206;DHT22;22242;48.796;9.930;2022-11-15T15:02:16;13.70;99.90
36206;DHT22;22242;48.796;9.930;2022-11-15T15:04:46;13.70;99.90
36206;DHT22;22242;48.796;9.930;2022-11-15T15:07:13;13.70;99.90
36206;DHT22;22242;48.796;9.930;2022-11-15T15:09:39;13.60;99.90
36206;DHT22;22242;48.796;9.930;2022-11-15T15:12:18;13.60;99.90
36206;DHT22;22242;48.796;9.930;2022-11-15T15:14:45;13.60;99.90
36206;DHT22;22242;48.796;9.930;2022-11-15T15:17:13;13.50;99.90
36206;DHT22;22242;48.796;9.930;2022-11-15T15:19:40;13.50;99.90
36206;DHT22;22242;48.796;9.930;2022-11-15T15:22:13;13.40;99.90
36206;DHT22;22242;48.796;9.930;2022-11-15T15:24:41;13.30;99.90
36206;DHT22;22242;48.796;9.930;2022-11-15T15:27:08;13.30;99.90
36206;DHT22;22242;48.796;9.930;2022-11-15T15:29:35;13.30;99.90
36206;DHT22;22242;48.796;9.930;2022-11-15T15:32:02;13.30;99.90
36206;DHT22;22242;48.796;9.930;2022-11-15T15:34:28;13.30;99.90
36206;DHT22;22242;48.796;9.930;2022-11-15T15:37:11;13.20;99.90
36206;DHT22;22242;48.796;9.930;2022-11-15T15:39:45;13.10;99.90
36206;DHT22;22242;48.796;9.930;2022-11-15T15:42:12;13.10;99.90
36206;DHT22;22242;48.796;9.930;2022-11-15T15:44:39;13.00;99.90
36206;DHT22;22242;48.796;9.930;2022-11-15T15:47:10;13.00;99.90
36206;DHT22;22242;48.796;9.930;2022-11-15T15:49:37;13.00;99.90
36206;DHT22;22242;48.796;9.930;2022-11-15T15:52:04;12.90;99.90
36206;DHT22;22242;48.796;9.930;2022-11-15T15:54:32;12.90;99.90
36206;DHT22;22242;48.796;9.930;2022-11-15T15:56:59;12.80;99.90
36206;DHT22;22242;48.796;9.930;2022-11-15T15:59:26;12.60;99.90
36206;DHT22;22242;48.796;9.930;2022-11-15T16:01:53;12.60;99.90
36206;DHT22;22242;48.796;9.930;2022-11-15T16:04:20;12.50;99.90
36206;DHT22;22242;48.796;9.930;2022-11-15T16:06:47;12.60;99.90
36206;DHT22;22242;48.796;9.930;2022-11-15T16:09:17;12.60;99.90
36206;DHT22;22242;48.796;9.930;2022-11-15T16:11:46;12.50;99.90
36206;DHT22;22242;48.796;9.930;2022-11-15T16:14:13;12.40;99.90
36206;DHT22;22242;48.796;9.930;2022-11-15T16:16:40;12.40;99.90
36206;DHT22;22242;48.796;9.930;2022-11-15T16:19:08;12.40;99.90
36206;DHT22;22242;48.796;9.930;2022-11-15T16:21:36;12.30;99.90
36206;DHT22;22242;48.796;9.930;2022-11-15T16:24:03;12.30;99.90
36206;DHT22;22242;48.796;9.930;2022-11-15T16:26:31;12.20;99.90
36206;DHT22;22242;48.796;9.930;2022-11-15T16:29:00;12.20;99.90
36206;DHT22;22242;48.796;9.930;2022-11-15T16:31:27;12.10;99.90
36206;DHT22;22242;48.796;9.930;2022-11-15T16:33:54;12.10;99.90
36206;DHT22;22242;48.796;9.930;2022-11-15T16:36:22;12.00;99.90
36206;DHT22;22242;48.796;9.930;2022-11-15T16:38:49;12.10;99.90
36206;DHT22;22242;48.796;9.930;2022-11-15T16:41:16;12.00;99.90
36206;DHT22;22242;48.796;9.930;2022-11-15T16:43:44;12.10;99.90
36206;DHT22;22242;48.796;9.930;2022-11-15T16:46:19;12.00;99.90
36206;DHT22;22242;48.796;9.930;2022-11-15T16:48:47;12.10;99.90
36206;DHT22;22242;48.796;9.930;2022-11-15T16:51:14;12.10;99.90
36206;DHT22;22242;48.796;9.930;2022-11-15T16:53:41;12.10;99.90
36206;DHT22;22242;48.796;9.930;2022-11-15T16:56:19;12.10;99.90
36206;DHT22;22242;48.796;9.930;2022-11-15T16:58:46;12.00;99.90
36206;DHT22;22242;48.796;9.930;2022-11-15T17:01:18;12.00;99.90
36206;DHT22;22242;48.796;9.930;2022-11-15T17:03:47;12.00;99.90
36206;DHT22;22242;48.796;9.930;2022-11-15T17:06:13;12.00;99.90
36206;DHT22;22242;48.796;9.930;2022-11-15T17:08:43;12.00;99.90
36206;DHT22;22242;48.796;9.930;2022-11-15T17:11:13;11.90;99.90
36206;DHT22;22242;48.796;9.930;2022-11-15T17:13:40;11.80;99.90
36206;DHT22;22242;48.796;9.930;2022-11-15T17:16:09;11.90;99.90
36206;DHT22;22242;48.796;9.930;2022-11-15T17:18:38;11.90;99.90